Time;durP1;ratioP1;P1;durP2;ratioP2;P2;SDS_P1;SDS_P2;PMS_P1;PMS_P2;Temp;Humidity;BMP_temperature;BMP_pressure;BME280_temperature;BME280_humidity;BME280_pressure;Samples;Min_cycle;Max_cycle;Signal;HPM_P1;HPM_P2
2022/05/03 00:02:05;;;;;;;10.80;9.18;;;13.60;89.90;;;;;;5133945;27;20447;-49
2022/05/03 00:04:31;;;;;;;10.82;9.05;;;13.60;90.10;;;;;;5134802;27;20514;-50
2022/05/03 00:06:58;;;;;;;12.57;8.90;;;13.50;90.20;;;;;;5133579;27;20088;-47
2022/05/03 00:09:25;;;;;;;9.88;8.88;;;13.40;90.30;;;;;;5115989;27;20042;-50
2022/05/03 00:11:52;;;;;;;10.68;8.45;;;13.40;90.60;;;;;;5131935;27;20446;-49
2022/05/03 00:14:19;;;;;;;9.90;8.90;;;13.30;90.80;;;;;;5134051;27;20043;-46
2022/05/03 00:16:46;;;;;;;11.70;9.02;;;13.20;90.80;;;;;;5130010;27;20049;-46
2022/05/03 00:19:13;;;;;;;10.70;8.68;;;13.20;90.90;;;;;;5124701;27;20118;-46
2022/05/03 00:21:40;;;;;;;10.93;8.82;;;13.20;91.00;;;;;;5130867;27;20047;-47
2022/05/03 00:24:07;;;;;;;10.52;9.35;;;13.20;91.20;;;;;;5133571;27;20375;-46
2022/05/03 00:26:34;;;;;;;10.75;8.70;;;13.10;91.40;;;;;;5127574;27;20042;-46
2022/05/03 00:29:00;;;;;;;12.13;9.50;;;13.00;91.40;;;;;;5111963;27;20043;-44
2022/05/03 00:31:27;;;;;;;9.38;8.30;;;13.00;91.50;;;;;;5110297;27;20117;-45
2022/05/03 00:33:54;;;;;;;10.50;8.35;;;12.90;91.70;;;;;;5134404;27;20043;-46
2022/05/03 12:10:56;;;;;;;;;;;13.80;95.00;;;;;;5090963;27;20370;-44
2022/05/03 12:13:23;;;;;;;31.42;22.23;;;13.70;95.30;;;;;;5077617;28;20011;-48
2022/05/03 12:15:50;;;;;;;34.30;23.10;;;13.70;95.00;;;;;;5089591;28;20040;-44
2022/05/03 12:18:20;;;;;;;34.30;22.65;;;13.60;95.30;;;;;;5089885;28;20051;-47
2022/05/03 12:20:48;;;;;;;31.65;22.42;;;13.60;95.00;;;;;;5088572;28;20404;-45
2022/05/03 12:23:15;;;;;;;30.20;22.48;;;13.70;95.10;;;;;;5089099;28;20039;-47
2022/05/03 12:25:42;;;;;;;28.67;20.90;;;13.80;95.00;;;;;;5080803;28;20047;-44
2022/05/03 12:28:08;;;;;;;26.85;20.80;;;13.90;95.00;;;;;;5089870;28;20044;-47
2022/05/03 12:30:35;;;;;;;26.92;20.80;;;14.00;94.70;;;;;;5089889;28;20071;-45
2022/05/03 12:33:02;;;;;;;29.48;21.52;;;14.00;94.50;;;;;;5089608;28;20109;-42
2022/05/03 12:35:29;;;;;;;29.65;22.13;;;14.10;94.50;;;;;;5089961;28;20102;-45
2022/05/03 12:37:56;;;;;;;28.73;21.25;;;14.00;94.80;;;;;;5085714;28;20032;-48
2022/05/03 12:40:23;;;;;;;29.10;21.77;;;14.00;94.90;;;;;;5080951;28;20570;-47
2022/05/03 12:42:50;;;;;;;30.08;22.88;;;14.10;94.80;;;;;;5070226;28;20064;-44
2022/05/03 12:45:19;;;;;;;27.02;21.77;;;14.20;94.70;;;;;;5070313;28;20106;-47
2022/05/03 12:47:48;;;;;;;32.13;21.85;;;14.30;94.70;;;;;;5070272;28;20102;-48
2022/05/03 12:50:15;;;;;;;28.70;21.42;;;14.30;94.50;;;;;;5070007;28;20037;-48
2022/05/03 12:52:42;;;;;;;32.28;22.30;;;14.30;94.40;;;;;;5069645;28;20063;-47
2022/05/03 12:55:09;;;;;;;28.73;21.48;;;14.20;94.60;;;;;;5069564;28;20088;-48
2022/05/03 13:00:28;;;;;;;34.85;23.95;;;14.10;94.60;;;;;;5069422;28;20041;-47
2022/05/03 13:02:55;;;;;;;31.92;23.52;;;14.10;94.70;;;;;;5084540;28;20040;-47
2022/05/03 13:05:22;;;;;;;33.45;24.08;;;14.10;94.80;;;;;;5089334;28;20488;-45
2022/05/03 13:07:49;;;;;;;34.75;23.15;;;14.10;94.60;;;;;;5089294;28;20037;-45
2022/05/03 13:10:16;;;;;;;33.33;23.50;;;14.10;94.90;;;;;;5088825;28;20057;-45
2022/05/03 13:12:44;;;;;;;31.48;22.27;;;14.10;94.60;;;;;;5087831;28;20044;-46
2022/05/03 13:15:10;;;;;;;30.58;22.73;;;14.20;94.70;;;;;;5089071;28;20051;-46
2022/05/03 13:17:37;;;;;;;34.35;22.65;;;14.20;94.70;;;;;;5088876;28;20484;-44
2022/05/03 13:20:04;;;;;;;34.78;22.88;;;14.20;94.70;;;;;;5078521;28;20044;-49
2022/05/03 13:22:31;;;;;;;37.17;25.58;;;14.20;94.70;;;;;;5055743;28;20052;-45
2022/05/03 13:24:58;;;;;;;32.30;23.90;;;14.20;94.80;;;;;;5056167;28;20045;-45
2022/05/03 13:27:24;;;;;;;36.33;23.48;;;14.20;94.70;;;;;;5055977;28;20514;-44
2022/05/03 13:29:54;;;;;;;31.95;23.67;;;14.30;94.90;;;;;;5056048;28;20119;-43
2022/05/03 13:32:20;;;;;;;31.85;23.90;;;14.40;94.70;;;;;;5055345;28;20557;-44
2022/05/03 13:34:47;;;;;;;36.63;24.55;;;14.50;94.50;;;;;;5056043;28;20087;-44
2022/05/03 13:42:45;;;;;;;33.67;23.08;;;14.60;94.30;;;;;;5055376;28;20094;-48
2022/05/03 13:45:12;;;;;;;33.00;22.58;;;14.60;94.20;;;;;;5055285;28;20488;-51
2022/05/03 13:47:57;;;;;;;37.70;23.98;;;14.50;94.30;;;;;;5055589;28;20047;-49
2022/05/03 13:50:23;;;;;;;36.15;24.05;;;14.60;94.60;;;;;;5055372;28;20518;-46
2022/05/03 13:52:50;;;;;;;35.55;24.70;;;14.60;94.10;;;;;;5055258;28;20037;-46
2022/05/03 13:55:17;;;;;;;36.00;25.92;;;14.60;94.20;;;;;;5055127;28;20033;-49
2022/05/03 13:57:44;;;;;;;34.17;24.90;;;14.60;94.20;;;;;;5057347;28;20056;-46
2022/05/03 14:00:10;;;;;;;37.55;24.75;;;14.60;94.20;;;;;;5061821;28;20041;-47
2022/05/03 14:02:40;;;;;;;35.90;25.52;;;14.70;94.20;;;;;;5071858;28;20558;-51
2022/05/03 14:05:07;;;;;;;39.17;24.75;;;14.80;94.10;;;;;;5073656;28;20139;-51
2022/05/03 14:07:33;;;;;;;37.15;24.45;;;14.80;94.00;;;;;;5073641;28;20412;-46
2022/05/03 14:10:00;;;;;;;33.70;24.25;;;14.70;94.20;;;;;;5073160;28;20076;-44
2022/05/03 14:12:27;;;;;;;35.35;25.45;;;14.80;94.10;;;;;;5072682;28;20037;-43
2022/05/03 14:14:54;;;;;;;35.25;25.58;;;14.90;94.10;;;;;;5073667;28;20158;-46
2022/05/03 14:17:27;;;;;;;39.42;28.45;;;14.90;94.00;;;;;;5073393;28;20045;-44
2022/05/03 14:19:53;;;;;;;41.03;27.15;;;14.80;93.90;;;;;;5073688;28;20041;-44
2022/05/03 14:22:20;;;;;;;39.50;27.40;;;14.90;94.00;;;;;;5073482;28;20126;-42
2022/05/03 14:24:47;;;;;;;42.80;26.85;;;14.90;94.10;;;;;;5073371;28;20072;-42
2022/05/03 14:27:14;;;;;;;39.97;28.73;;;14.90;93.90;;;;;;5073248;28;20070;-48
2022/05/03 14:29:40;;;;;;;39.35;27.02;;;15.00;94.20;;;;;;5073318;28;20037;-45
2022/05/03 14:32:07;;;;;;;39.28;28.42;;;15.10;93.70;;;;;;5072577;28;20391;-47
2022/05/03 14:34:34;;;;;;;43.00;29.83;;;15.20;93.70;;;;;;5073193;28;20357;-42
2022/05/03 14:37:01;;;;;;;40.80;28.60;;;15.10;93.40;;;;;;5073316;28;20554;-46
2022/05/03 14:39:28;;;;;;;34.63;26.83;;;15.30;93.60;;;;;;5073342;28;20115;-45
2022/05/03 14:41:58;;;;;;;35.35;26.77;;;15.40;93.20;;;;;;5073145;28;20055;-51
2022/05/03 14:44:25;;;;;;;34.05;26.10;;;15.60;92.50;;;;;;5073340;28;20927;-45
2022/05/03 14:46:52;;;;;;;36.50;26.83;;;15.70;92.40;;;;;;5059352;28;20056;-50
2022/05/03 14:49:18;;;;;;;36.15;26.95;;;15.80;92.40;;;;;;5054095;28;20073;-45
2022/05/03 14:51:45;;;;;;;31.65;24.98;;;16.00;91.90;;;;;;5053889;28;20043;-44
2022/05/03 14:54:12;;;;;;;30.35;24.23;;;16.00;92.10;;;;;;5054225;28;20422;-47
2022/05/03 15:04:55;;;;;;;36.80;26.60;;;16.40;91.20;;;;;;5053708;28;19921;-50
2022/05/03 15:07:22;;;;;;;32.58;26.10;;;16.50;91.10;;;;;;5053616;28;20491;-45
2022/05/03 15:09:49;;;;;;;36.28;26.40;;;16.50;91.20;;;;;;5055971;28;20403;-48
2022/05/03 15:12:15;;;;;;;37.65;26.17;;;16.50;91.20;;;;;;5072518;28;20445;-47
2022/05/03 15:14:42;;;;;;;38.25;27.38;;;16.60;91.00;;;;;;5072681;28;20480;-47
2022/05/03 15:17:09;;;;;;;35.35;26.73;;;16.70;90.90;;;;;;5070957;28;20098;-45
2022/05/03 15:19:36;;;;;;;35.80;24.92;;;16.60;90.60;;;;;;5071689;28;20048;-44
2022/05/03 15:22:02;;;;;;;37.17;25.08;;;16.60;90.50;;;;;;5071751;28;20090;-44
2022/05/03 15:24:35;;;;;;;29.65;22.63;;;16.70;89.80;;;;;;5071687;28;20098;-48
2022/05/03 15:27:05;;;;;;;28.40;20.23;;;16.70;89.80;;;;;;5072162;28;20403;-47
2022/05/03 15:29:31;;;;;;;25.58;20.67;;;16.90;88.10;;;;;;5071913;28;20428;-48
2022/05/03 15:31:58;;;;;;;29.73;21.52;;;16.90;87.90;;;;;;5072531;28;20040;-45
2022/05/03 15:34:26;;;;;;;25.02;21.27;;;16.90;88.60;;;;;;5073010;28;20108;-48
2022/05/03 15:36:53;;;;;;;25.48;20.50;;;16.90;87.80;;;;;;5072352;28;20044;-45
2022/05/03 15:39:20;;;;;;;27.88;20.70;;;16.80;88.20;;;;;;5071348;28;20044;-43
2022/05/03 15:41:46;;;;;;;23.42;19.20;;;16.90;87.80;;;;;;5072100;28;20082;-43
2022/05/03 15:44:13;;;;;;;25.45;20.58;;;16.80;87.80;;;;;;5057477;28;20471;-44
2022/05/03 15:46:41;;;;;;;26.35;21.20;;;16.60;89.20;;;;;;5052983;28;20044;-47
2022/05/03 15:49:13;;;;;;;24.13;19.92;;;16.40;88.80;;;;;;5053060;28;20041;-50
2022/05/03 15:51:40;;;;;;;26.08;19.85;;;16.20;89.00;;;;;;5052982;28;20041;-45
2022/05/03 15:54:07;;;;;;;24.85;20.55;;;16.20;89.40;;;;;;5059282;28;20069;-47
2022/05/03 15:56:33;;;;;;;24.70;18.48;;;16.10;90.00;;;;;;5052913;28;20041;-41
2022/05/03 15:59:00;;;;;;;28.13;20.08;;;16.10;89.90;;;;;;5053113;28;20067;-45
2022/05/03 16:01:27;;;;;;;23.27;19.80;;;16.00;89.60;;;;;;5052980;28;20052;-48
2022/05/03 16:03:54;;;;;;;23.95;19.95;;;16.00;89.60;;;;;;5052834;28;20048;-43
2022/05/03 16:06:21;;;;;;;23.92;19.75;;;16.00;90.00;;;;;;5052746;28;20045;-46
2022/05/03 16:08:47;;;;;;;26.45;20.83;;;16.10;89.60;;;;;;5053081;28;20103;-45
2022/05/03 16:11:14;;;;;;;27.15;21.48;;;16.10;90.30;;;;;;5053046;28;20060;-45
2022/05/03 16:13:41;;;;;;;32.08;23.05;;;16.00;90.90;;;;;;5067940;28;20071;-49
2022/05/03 16:16:10;;;;;;;30.90;22.33;;;16.00;90.70;;;;;;5072411;28;20045;-48
2022/05/03 16:18:36;;;;;;;26.70;21.40;;;16.00;90.80;;;;;;5072485;28;20037;-46
2022/05/03 16:21:03;;;;;;;29.40;21.98;;;16.10;90.80;;;;;;5072284;28;20041;-48
2022/05/03 16:23:30;;;;;;;27.27;21.20;;;16.10;90.70;;;;;;5063576;28;20388;-50
2022/05/03 16:25:57;;;;;;;28.17;21.83;;;16.10;90.60;;;;;;5060785;28;20400;-48
2022/05/03 16:28:24;;;;;;;28.67;20.67;;;16.00;90.40;;;;;;5060455;28;20041;-45
2022/05/03 16:30:51;;;;;;;27.13;20.35;;;16.00;90.50;;;;;;5053015;28;20059;-45
2022/05/03 16:33:18;;;;;;;23.85;20.52;;;16.10;90.40;;;;;;5052902;28;20041;-50
2022/05/03 16:35:44;;;;;;;25.58;20.95;;;16.10;90.30;;;;;;5053143;28;20053;-48
2022/05/03 16:43:42;;;;;;;;;;;16.10;90.20;;;;;;5060377;28;20041;-49
2022/05/03 16:46:09;;;;;;;28.85;20.05;;;16.00;90.20;;;;;;5053100;28;20042;-44
2022/05/03 16:48:36;;;;;;;25.88;20.73;;;16.00;90.50;;;;;;5053035;28;20044;-47
2022/05/03 16:51:08;;;;;;;26.92;20.70;;;16.10;90.40;;;;;;5052362;28;20048;-52
2022/05/03 16:53:34;;;;;;;25.45;20.52;;;16.10;90.20;;;;;;5052238;28;20106;-44
2022/05/03 16:56:01;;;;;;;26.27;20.85;;;16.10;90.20;;;;;;5075612;28;20041;-49
2022/05/03 16:58:28;;;;;;;27.25;19.58;;;16.10;90.10;;;;;;5056213;28;20037;-47
2022/05/03 17:00:55;;;;;;;25.75;19.85;;;16.00;90.30;;;;;;5056029;28;20488;-47
2022/05/03 17:03:22;;;;;;;23.92;19.30;;;16.00;90.00;;;;;;5060294;28;20036;-49
2022/05/03 17:05:48;;;;;;;23.42;20.10;;;16.00;90.10;;;;;;5060753;28;20041;-45
2022/05/03 17:08:15;;;;;;;24.17;19.08;;;15.90;90.20;;;;;;5060492;28;20055;-45
2022/05/03 17:10:42;;;;;;;24.52;18.42;;;15.90;90.20;;;;;;5070795;28;20037;-52
2022/05/03 17:13:09;;;;;;;26.58;18.42;;;15.80;90.20;;;;;;5061208;28;20082;-50
2022/05/03 17:15:35;;;;;;;22.27;18.30;;;15.80;90.20;;;;;;5058798;28;20040;-43
2022/05/03 17:18:02;;;;;;;24.23;17.85;;;15.70;90.30;;;;;;5065164;28;20537;-46
2022/05/03 17:20:29;;;;;;;22.45;18.08;;;15.60;90.30;;;;;;5057002;28;20635;-47
2022/05/03 17:22:56;;;;;;;26.42;17.98;;;15.60;90.50;;;;;;5059327;28;20106;-45
2022/05/03 17:25:25;;;;;;;24.73;17.73;;;15.60;90.60;;;;;;5061437;28;20533;-44
2022/05/03 17:27:52;;;;;;;23.63;17.38;;;15.60;90.50;;;;;;5062330;28;20499;-47
2022/05/03 17:30:19;;;;;;;19.80;16.52;;;15.60;90.50;;;;;;5055988;28;20037;-46
2022/05/03 17:32:46;;;;;;;22.27;16.90;;;15.60;90.50;;;;;;5065413;28;20037;-48
2022/05/03 17:35:13;;;;;;;21.88;16.55;;;15.60;90.40;;;;;;5058112;28;20108;-46
2022/05/03 17:37:39;;;;;;;18.67;15.88;;;15.70;90.40;;;;;;5055829;28;20075;-45
2022/05/03 17:40:07;;;;;;;19.88;15.98;;;15.70;90.20;;;;;;5055950;28;20037;-43
2022/05/03 17:42:34;;;;;;;22.80;16.45;;;15.70;90.30;;;;;;5067568;28;20032;-44
2022/05/03 17:45:01;;;;;;;20.25;16.45;;;15.70;90.20;;;;;;5062273;28;20032;-47
2022/05/03 17:47:28;;;;;;;20.83;17.05;;;15.70;90.30;;;;;;5062577;28;20438;-45
2022/05/03 17:49:54;;;;;;;20.83;17.02;;;15.60;90.20;;;;;;5064406;28;20079;-44
2022/05/03 17:55:13;;;;;;;23.85;18.17;;;15.50;90.40;;;;;;5063836;28;20043;-47
2022/05/03 17:57:40;;;;;;;20.00;17.33;;;15.40;90.60;;;;;;5064800;28;20087;-44
2022/05/03 18:00:08;;;;;;;22.48;18.50;;;15.40;90.70;;;;;;5065757;28;20036;-45
2022/05/03 18:02:38;;;;;;;21.33;18.38;;;15.50;90.90;;;;;;5061376;28;20071;-44
2022/05/03 18:05:04;;;;;;;25.05;17.50;;;15.50;90.80;;;;;;5055978;28;20041;-48
2022/05/03 18:07:31;;;;;;;24.08;18.17;;;15.40;90.90;;;;;;5059464;28;20549;-46
2022/05/03 18:09:59;;;;;;;23.95;18.50;;;15.40;90.90;;;;;;5066276;28;21500;-48
2022/05/03 18:12:25;;;;;;;21.70;18.17;;;15.20;91.20;;;;;;5073977;28;20117;-44
2022/05/03 18:14:56;;;;;;;22.85;17.88;;;15.20;91.20;;;;;;5074297;28;20044;-45
2022/05/03 18:17:23;;;;;;;25.02;17.50;;;15.20;91.20;;;;;;5074483;28;20040;-44
2022/05/03 18:19:50;;;;;;;20.92;18.17;;;15.20;91.10;;;;;;5074239;28;20515;-45
2022/05/03 18:22:18;;;;;;;21.88;17.42;;;15.10;91.20;;;;;;5072780;28;20052;-45
2022/05/03 18:24:44;;;;;;;22.23;17.30;;;15.10;91.20;;;;;;5066360;28;20468;-48
2022/05/03 18:27:11;;;;;;;22.02;17.13;;;15.10;91.20;;;;;;5054906;28;20091;-44
2022/05/03 18:29:38;;;;;;;23.30;17.23;;;15.10;91.10;;;;;;5058129;28;20124;-46
2022/05/03 18:32:05;;;;;;;21.23;16.60;;;15.10;91.20;;;;;;5067487;28;20094;-44
2022/05/03 18:34:32;;;;;;;20.52;16.25;;;15.00;91.30;;;;;;5061341;28;20497;-47
2022/05/03 18:36:59;;;;;;;19.40;16.02;;;15.00;91.30;;;;;;5059986;28;20099;-47
2022/05/03 18:39:26;;;;;;;22.65;16.48;;;14.90;91.40;;;;;;5059544;28;20536;-49
2022/05/03 18:41:53;;;;;;;21.08;16.92;;;14.90;91.50;;;;;;5060080;28;20040;-49
2022/05/03 18:44:19;;;;;;;20.17;16.00;;;14.90;91.60;;;;;;5062140;28;20106;-50
2022/05/03 18:46:46;;;;;;;19.45;16.55;;;14.90;91.80;;;;;;5065610;28;20124;-44
2022/05/03 18:49:13;;;;;;;20.58;17.25;;;14.90;91.60;;;;;;5061098;28;20498;-52
2022/05/03 18:51:40;;;;;;;18.42;16.08;;;14.90;91.60;;;;;;5064290;28;20434;-47
2022/05/03 18:56:52;;;;;;;21.70;17.35;;;14.80;91.70;;;;;;5059681;28;20052;-44
2022/05/03 18:59:19;;;;;;;28.17;17.15;;;14.80;91.70;;;;;;5059844;28;20225;-47
2022/05/03 19:01:47;;;;;;;23.63;16.75;;;14.80;91.80;;;;;;5065515;28;20029;-49
2022/05/03 19:04:14;;;;;;;25.95;17.02;;;14.80;91.80;;;;;;5066281;28;20107;-47
2022/05/03 19:06:41;;;;;;;20.98;16.95;;;14.70;91.80;;;;;;5066085;28;20068;-46
2022/05/03 19:09:07;;;;;;;22.35;16.50;;;14.70;91.90;;;;;;5052783;28;20064;-45
2022/05/03 19:11:35;;;;;;;21.15;16.73;;;14.60;92.00;;;;;;5058720;28;20144;-47
2022/05/03 19:14:02;;;;;;;26.00;17.05;;;14.60;92.10;;;;;;5068250;28;20036;-47
2022/05/03 19:16:29;;;;;;;24.67;16.65;;;14.50;92.20;;;;;;5064925;28;20060;-47
2022/05/03 19:18:56;;;;;;;20.88;16.35;;;14.50;92.40;;;;;;5064384;28;20043;-45
2022/05/03 19:21:22;;;;;;;23.60;16.50;;;14.40;92.50;;;;;;5056548;28;20102;-46
2022/05/03 19:32:06;;;;;;;21.20;15.77;;;14.20;92.90;;;;;;5073539;28;20389;-50
2022/05/03 19:34:33;;;;;;;27.20;16.98;;;14.10;92.90;;;;;;5056369;28;20086;-43
2022/05/03 19:37:01;;;;;;;22.33;17.33;;;14.10;92.90;;;;;;5061147;28;20118;-47
2022/05/03 19:39:27;;;;;;;22.10;16.23;;;14.00;92.90;;;;;;5052134;28;20045;-49
2022/05/03 19:41:57;;;;;;;20.15;16.52;;;14.00;92.90;;;;;;5053436;28;20500;-49
2022/05/03 19:44:24;;;;;;;26.25;17.10;;;14.00;93.10;;;;;;5070936;28;20090;-44
2022/05/03 19:46:50;;;;;;;21.98;16.48;;;14.00;93.20;;;;;;5072152;28;20055;-46
2022/05/03 19:49:17;;;;;;;22.70;17.08;;;13.90;93.20;;;;;;5056658;28;20037;-44
2022/05/03 19:51:44;;;;;;;23.20;17.35;;;13.90;93.20;;;;;;5057927;28;20051;-49
2022/05/03 19:54:11;;;;;;;22.90;17.23;;;13.90;93.30;;;;;;5051297;28;20057;-49
2022/05/03 19:56:38;;;;;;;21.65;16.88;;;13.80;93.30;;;;;;5052056;28;20400;-46
2022/05/03 19:59:05;;;;;;;24.92;16.40;;;13.80;93.50;;;;;;5052320;28;20484;-54
2022/05/03 20:01:32;;;;;;;25.35;16.52;;;13.70;93.60;;;;;;5052485;28;20041;-47
2022/05/03 20:03:59;;;;;;;23.15;17.48;;;13.70;93.80;;;;;;5055793;28;20477;-46
2022/05/03 20:06:25;;;;;;;22.35;17.02;;;13.60;93.90;;;;;;5052207;28;20037;-50
2022/05/03 20:08:52;;;;;;;24.90;18.45;;;13.60;93.90;;;;;;5057347;28;20064;-45
2022/05/03 20:11:19;;;;;;;24.45;17.40;;;13.60;94.10;;;;;;5052287;28;20041;-50
2022/05/03 20:13:46;;;;;;;24.48;16.55;;;13.50;94.20;;;;;;5061678;28;20033;-45
2022/05/03 20:16:13;;;;;;;24.92;17.48;;;13.60;94.20;;;;;;5055740;28;20352;-47
2022/05/03 20:18:40;;;;;;;24.95;18.85;;;13.50;94.30;;;;;;5058038;28;20499;-48
2022/05/03 20:21:07;;;;;;;23.52;17.00;;;13.50;94.30;;;;;;5055286;28;20041;-50
2022/05/03 20:23:33;;;;;;;23.27;17.40;;;13.50;94.30;;;;;;5061576;28;20044;-51
2022/05/03 20:26:00;;;;;;;20.73;17.40;;;13.40;94.30;;;;;;5060649;28;20135;-49
2022/05/03 20:28:28;;;;;;;27.83;21.80;;;13.40;94.40;;;;;;5062825;28;20037;-50
2022/05/03 20:30:57;;;;;;;32.25;24.08;;;13.30;94.50;;;;;;5059853;28;20041;-50
2022/05/03 20:34:39;;;;;;;;;;;13.20;94.50;;;;;;5109748;27;20844;-51
2022/05/03 20:37:06;;;;;;;23.35;19.08;;;13.20;94.90;;;;;;5086254;28;19926;-47
2022/05/03 20:39:33;;;;;;;24.98;19.98;;;13.10;94.60;;;;;;5085033;28;20047;-46
2022/05/03 20:42:00;;;;;;;30.05;19.15;;;13.10;94.70;;;;;;5092996;28;20043;-45
2022/05/03 20:44:27;;;;;;;25.50;19.35;;;13.10;94.70;;;;;;5095886;28;20040;-44
2022/05/03 20:49:41;;;;;;;24.70;18.95;;;13.00;94.90;;;;;;5077506;28;20064;-48
2022/05/03 20:52:08;;;;;;;24.73;17.88;;;13.00;95.00;;;;;;5086764;28;20560;-44
2022/05/03 20:54:35;;;;;;;20.25;17.48;;;13.00;95.00;;;;;;5085215;28;20058;-44
2022/05/03 20:57:02;;;;;;;25.88;18.35;;;12.90;95.00;;;;;;5083308;28;20459;-47
2022/05/03 20:59:28;;;;;;;20.30;17.20;;;12.90;95.10;;;;;;5092989;28;20052;-46
2022/05/03 21:01:55;;;;;;;22.83;17.70;;;12.90;95.20;;;;;;5075743;28;20095;-47
2022/05/03 21:04:22;;;;;;;26.30;17.50;;;12.80;95.20;;;;;;5070783;28;20115;-49
2022/05/03 21:06:49;;;;;;;21.80;18.40;;;12.80;95.20;;;;;;5070381;28;20072;-50
2022/05/03 21:09:16;;;;;;;23.92;18.80;;;12.80;95.30;;;;;;5086831;28;20036;-52
2022/05/03 21:11:43;;;;;;;24.25;17.88;;;12.80;95.20;;;;;;5084197;28;20102;-49
2022/05/03 21:14:10;;;;;;;27.25;18.67;;;12.80;95.20;;;;;;5077366;28;20051;-46
2022/05/03 21:16:38;;;;;;;24.02;18.33;;;12.80;95.20;;;;;;5076877;28;20051;-46
2022/05/03 21:19:05;;;;;;;23.35;18.48;;;12.80;95.50;;;;;;5085161;28;20041;-50
2022/05/03 21:21:31;;;;;;;24.27;18.40;;;12.80;95.20;;;;;;5076462;28;20462;-47
2022/05/03 21:23:58;;;;;;;25.70;18.42;;;12.70;95.20;;;;;;5075633;28;20032;-48
2022/05/03 21:26:25;;;;;;;27.73;18.45;;;12.70;95.30;;;;;;5084086;28;20072;-44
2022/05/03 21:28:52;;;;;;;27.15;17.85;;;12.70;95.30;;;;;;5083715;28;20056;-48
2022/05/03 21:31:18;;;;;;;23.27;18.45;;;12.70;95.40;;;;;;5081539;28;20041;-48
2022/05/03 21:33:45;;;;;;;27.02;19.10;;;12.60;95.40;;;;;;5073099;28;20373;-48
2022/05/03 21:36:12;;;;;;;24.00;19.20;;;12.60;95.40;;;;;;5079342;28;20089;-45
2022/05/03 21:38:39;;;;;;;24.70;19.15;;;12.60;95.50;;;;;;5077847;28;20440;-48
2022/05/03 21:41:05;;;;;;;28.45;19.35;;;12.50;95.50;;;;;;5074413;28;20083;-45
2022/05/03 21:43:32;;;;;;;25.92;18.67;;;12.50;95.60;;;;;;5079736;28;20102;-48
2022/05/03 21:45:59;;;;;;;25.30;20.25;;;12.50;95.70;;;;;;5066964;28;20136;-46
2022/05/03 21:48:26;;;;;;;26.00;19.52;;;12.40;95.70;;;;;;5055922;28;20060;-48
2022/05/03 21:50:53;;;;;;;25.88;19.77;;;12.30;95.80;;;;;;5057788;28;20041;-46
2022/05/03 21:53:19;;;;;;;26.38;19.38;;;12.40;95.80;;;;;;5054279;28;20049;-48
